sensor_id;sensor_type;location;lat;lon;timestamp;pressure;altitude;pressure_sealevel;temperature;humidity
74627;BME280;63132;52.268;5.192;2023-02-19T00:01:21;101633.66;;;8.68;83.31
74627;BME280;63132;52.268;5.192;2023-02-19T00:03:58;101638.25;;;8.81;83.08
74627;BME280;63132;52.268;5.192;2023-02-19T00:06:27;101642.56;;;8.67;83.87
74627;BME280;63132;52.268;5.192;2023-02-19T00:08:53;101635.66;;;8.64;84.13
74627;BME280;63132;52.268;5.192;2023-02-19T00:11:23;101634.78;;;8.64;84.59
74627;BME280;63132;52.268;5.192;2023-02-19T00:13:51;101640.19;;;8.62;84.54
74627;BME280;63132;52.268;5.192;2023-02-19T00:16:29;101647.19;;;8.63;84.93
74627;BME280;63132;52.268;5.192;2023-02-19T00:18:56;101644.91;;;8.57;85.11
74627;BME280;63132;52.268;5.192;2023-02-19T00:21:23;101649.41;;;8.55;85.29
74627;BME280;63132;52.268;5.192;2023-02-19T00:23:54;101643.50;;;8.50;85.47
74627;BME280;63132;52.268;5.192;2023-02-19T00:26:20;101642.66;;;8.49;85.76
74627;BME280;63132;52.268;5.192;2023-02-19T00:28:47;101648.50;;;8.56;85.35
74627;BME280;63132;52.268;5.192;2023-02-19T00:33:45;101640.75;;;8.68;85.08
74627;BME280;63132;52.268;5.192;2023-02-19T00:36:11;101650.22;;;8.57;85.36
74627;BME280;63132;52.268;5.192;2023-02-19T00:38:37;101646.69;;;8.57;85.64
74627;BME280;63132;52.268;5.192;2023-02-19T00:41:03;101662.34;;;8.61;85.47
74627;BME280;63132;52.268;5.192;2023-02-19T00:46:09;101663.50;;;8.56;85.24
74627;BME280;63132;52.268;5.192;2023-02-19T00:48:34;101657.34;;;8.71;84.72
74627;BME280;63132;52.268;5.192;2023-02-19T00:51:00;101652.16;;;8.70;84.87
74627;BME280;63132;52.268;5.192;2023-02-19T00:53:25;101652.69;;;8.60;84.88
74627;BME280;63132;52.268;5.192;2023-02-19T00:55:50;101659.16;;;8.71;84.44
74627;BME280;63132;52.268;5.192;2023-02-19T00:58:16;101666.53;;;8.66;84.56
74627;BME280;63132;52.268;5.192;2023-02-19T01:00:41;101660.56;;;8.62;84.69
74627;BME280;63132;52.268;5.192;2023-02-19T01:03:06;101665.84;;;8.62;84.68
74627;BME280;63132;52.268;5.192;2023-02-19T01:05:32;101671.06;;;8.63;84.65
74627;BME280;63132;52.268;5.192;2023-02-19T01:07:57;101672.94;;;8.61;84.19
74627;BME280;63132;52.268;5.192;2023-02-19T01:10:23;101671.75;;;8.67;84.03
74627;BME280;63132;52.268;5.192;2023-02-19T01:12:48;101671.13;;;8.78;83.83
74627;BME280;63132;52.268;5.192;2023-02-19T01:15:13;101668.31;;;8.65;84.24
74627;BME280;63132;52.268;5.192;2023-02-19T01:17:39;101669.53;;;8.59;84.33
74627;BME280;63132;52.268;5.192;2023-02-19T01:20:04;101666.75;;;8.77;83.88
74627;BME280;63132;52.268;5.192;2023-02-19T01:22:30;101667.63;;;8.61;84.06
74627;BME280;63132;52.268;5.192;2023-02-19T01:24:55;101674.31;;;8.52;84.06
74627;BME280;63132;52.268;5.192;2023-02-19T01:27:21;101675.31;;;8.50;84.11
74627;BME280;63132;52.268;5.192;2023-02-19T01:29:46;101673.06;;;8.44;84.67
74627;BME280;63132;52.268;5.192;2023-02-19T01:32:11;101676.28;;;8.65;84.00
74627;BME280;63132;52.268;5.192;2023-02-19T01:34:37;101681.19;;;8.57;84.22
74627;BME280;63132;52.268;5.192;2023-02-19T01:37:02;101685.94;;;8.50;84.27
74627;BME280;63132;52.268;5.192;2023-02-19T01:39:27;101682.59;;;8.46;84.66
74627;BME280;63132;52.268;5.192;2023-02-19T01:41:53;101695.53;;;8.36;84.58
74627;BME280;63132;52.268;5.192;2023-02-19T01:46:44;101678.00;;;8.34;84.84
74627;BME280;63132;52.268;5.192;2023-02-19T01:49:28;101689.13;;;8.40;85.09
74627;BME280;63132;52.268;5.192;2023-02-19T01:52:01;101690.41;;;8.49;84.71
74627;BME280;63132;52.268;5.192;2023-02-19T01:54:32;101695.53;;;8.36;84.95
74627;BME280;63132;52.268;5.192;2023-02-19T01:57:03;101688.00;;;8.45;84.71
74627;BME280;63132;52.268;5.192;2023-02-19T01:59:32;101690.75;;;8.43;84.74
74627;BME280;63132;52.268;5.192;2023-02-19T02:01:59;101693.41;;;8.43;84.56
74627;BME280;63132;52.268;5.192;2023-02-19T02:04:24;101688.34;;;8.38;85.20
74627;BME280;63132;52.268;5.192;2023-02-19T02:06:54;101688.34;;;8.38;85.05
74627;BME280;63132;52.268;5.192;2023-02-19T02:09:26;101696.91;;;8.27;85.37
74627;BME280;63132;52.268;5.192;2023-02-19T02:12:11;101692.44;;;8.44;84.67
74627;BME280;63132;52.268;5.192;2023-02-19T02:14:39;101701.78;;;8.35;85.10
74627;BME280;63132;52.268;5.192;2023-02-19T02:17:24;101708.97;;;8.33;84.86
74627;BME280;63132;52.268;5.192;2023-02-19T02:27:48;101700.09;;;8.34;85.28
74627;BME280;63132;52.268;5.192;2023-02-19T02:33:20;101705.53;;;8.31;85.62
74627;BME280;63132;52.268;5.192;2023-02-19T02:35:57;101707.41;;;8.29;85.51
74627;BME280;63132;52.268;5.192;2023-02-19T02:38:27;101702.13;;;8.29;85.24
74627;BME280;63132;52.268;5.192;2023-02-19T02:40:54;101706.31;;;8.33;85.27
74627;BME280;63132;52.268;5.192;2023-02-19T02:43:20;101702.03;;;8.31;84.68
74627;BME280;63132;52.268;5.192;2023-02-19T02:45:45;101708.38;;;8.28;84.70
74627;BME280;63132;52.268;5.192;2023-02-19T02:50:41;101714.53;;;8.28;84.75
74627;BME280;63132;52.268;5.192;2023-02-19T02:53:14;101708.72;;;8.38;83.67
74627;BME280;63132;52.268;5.192;2023-02-19T02:56:00;101717.88;;;8.32;83.60
74627;BME280;63132;52.268;5.192;2023-02-19T02:58:27;101709.66;;;8.37;83.66
74627;BME280;63132;52.268;5.192;2023-02-19T03:00:59;101714.09;;;8.36;83.56
74627;BME280;63132;52.268;5.192;2023-02-19T03:03:46;101716.31;;;8.28;83.74
74627;BME280;63132;52.268;5.192;2023-02-19T03:06:16;101713.69;;;8.28;83.91
74627;BME280;63132;52.268;5.192;2023-02-19T03:08:49;101732.75;;;8.35;84.21
74627;BME280;63132;52.268;5.192;2023-02-19T03:11:18;101721.53;;;8.29;84.16
74627;BME280;63132;52.268;5.192;2023-02-19T03:14:13;101718.38;;;8.23;84.30
74627;BME280;63132;52.268;5.192;2023-02-19T03:17:04;101726.41;;;8.21;84.15
74627;BME280;63132;52.268;5.192;2023-02-19T03:19:51;101728.03;;;8.24;84.12
74627;BME280;63132;52.268;5.192;2023-02-19T03:22:24;101724.59;;;8.22;83.98
74627;BME280;63132;52.268;5.192;2023-02-19T03:24:58;101730.34;;;8.30;83.92
74627;BME280;63132;52.268;5.192;2023-02-19T03:27:44;101736.06;;;8.22;83.73
74627;BME280;63132;52.268;5.192;2023-02-19T03:30:17;101733.53;;;8.21;83.79
74627;BME280;63132;52.268;5.192;2023-02-19T03:35:30;101739.66;;;8.21;84.50
74627;BME280;63132;52.268;5.192;2023-02-19T03:38:16;101744.78;;;8.08;85.02
74627;BME280;63132;52.268;5.192;2023-02-19T03:41:06;101749.94;;;8.11;84.82
74627;BME280;63132;52.268;5.192;2023-02-19T03:43:39;101753.19;;;8.16;84.59
74627;BME280;63132;52.268;5.192;2023-02-19T03:46:15;101754.72;;;8.21;84.61
74627;BME280;63132;52.268;5.192;2023-02-19T03:48:57;101756.94;;;8.12;84.02
74627;BME280;63132;52.268;5.192;2023-02-19T03:51:30;101759.75;;;8.09;84.46
74627;BME280;63132;52.268;5.192;2023-02-19T03:54:19;101760.75;;;8.07;84.80
74627;BME280;63132;52.268;5.192;2023-02-19T03:57:05;101770.16;;;7.96;85.23
74627;BME280;63132;52.268;5.192;2023-02-19T03:59:58;101770.06;;;7.98;84.92
74627;BME280;63132;52.268;5.192;2023-02-19T04:03:02;101767.06;;;8.04;84.83
74627;BME280;63132;52.268;5.192;2023-02-19T04:05:21;101778.81;;;8.00;85.03
74627;BME280;63132;52.268;5.192;2023-02-19T04:07:52;101778.63;;;8.03;84.99
74627;BME280;63132;52.268;5.192;2023-02-19T04:10:20;101782.28;;;8.00;85.82
74627;BME280;63132;52.268;5.192;2023-02-19T04:12:56;101797.66;;;7.93;86.18
74627;BME280;63132;52.268;5.192;2023-02-19T04:15:26;101786.59;;;7.85;86.54
74627;BME280;63132;52.268;5.192;2023-02-19T04:17:57;101794.56;;;7.85;86.64
74627;BME280;63132;52.268;5.192;2023-02-19T04:20:26;101794.81;;;7.80;86.86
74627;BME280;63132;52.268;5.192;2023-02-19T04:22:53;101794.63;;;7.84;87.20
74627;BME280;63132;52.268;5.192;2023-02-19T04:25:19;101791.22;;;7.81;86.80
74627;BME280;63132;52.268;5.192;2023-02-19T04:27:46;101803.19;;;7.89;86.62
74627;BME280;63132;52.268;5.192;2023-02-19T04:30:12;101804.53;;;7.80;86.52
74627;BME280;63132;52.268;5.192;2023-02-19T04:32:38;101811.88;;;7.75;86.80
74627;BME280;63132;52.268;5.192;2023-02-19T04:35:04;101813.19;;;7.84;86.82
74627;BME280;63132;52.268;5.192;2023-02-19T04:37:29;101810.84;;;7.77;87.15
74627;BME280;63132;52.268;5.192;2023-02-19T04:39:55;101822.13;;;7.81;86.67
74627;BME280;63132;52.268;5.192;2023-02-19T04:42:20;101827.78;;;7.75;86.94
74627;BME280;63132;52.268;5.192;2023-02-19T04:44:46;101834.47;;;7.82;87.16
74627;BME280;63132;52.268;5.192;2023-02-19T04:47:11;101843.03;;;7.69;87.13
74627;BME280;63132;52.268;5.192;2023-02-19T04:49:36;101846.78;;;7.65;87.69
74627;BME280;63132;52.268;5.192;2023-02-19T04:52:02;101851.13;;;7.66;87.99
74627;BME280;63132;52.268;5.192;2023-02-19T04:54:27;101857.13;;;7.70;87.85
74627;BME280;63132;52.268;5.192;2023-02-19T04:56:53;101847.41;;;7.70;87.52
74627;BME280;63132;52.268;5.192;2023-02-19T04:59:18;101847.94;;;7.77;87.31
74627;BME280;63132;52.268;5.192;2023-02-19T05:01:43;101853.56;;;7.71;87.36
74627;BME280;63132;52.268;5.192;2023-02-19T05:04:09;101855.09;;;7.75;87.48
74627;BME280;63132;52.268;5.192;2023-02-19T05:06:34;101861.25;;;7.76;87.24
74627;BME280;63132;52.268;5.192;2023-02-19T05:09:00;101863.91;;;7.76;87.27
74627;BME280;63132;52.268;5.192;2023-02-19T05:11:25;101867.25;;;7.79;87.59
74627;BME280;63132;52.268;5.192;2023-02-19T05:13:51;101878.03;;;7.76;87.24
74627;BME280;63132;52.268;5.192;2023-02-19T05:16:17;101876.75;;;7.66;87.17
74627;BME280;63132;52.268;5.192;2023-02-19T05:18:44;101874.88;;;7.68;87.56
74627;BME280;63132;52.268;5.192;2023-02-19T05:21:10;101888.13;;;7.68;87.67
74627;BME280;63132;52.268;5.192;2023-02-19T05:23:35;101885.88;;;7.60;87.78
74627;BME280;63132;52.268;5.192;2023-02-19T05:26:06;101884.25;;;7.57;87.47
74627;BME280;63132;52.268;5.192;2023-02-19T05:28:32;101890.38;;;7.58;87.29
74627;BME280;63132;52.268;5.192;2023-02-19T05:31:03;101892.09;;;7.59;87.58
74627;BME280;63132;52.268;5.192;2023-02-19T05:33:31;101888.69;;;7.57;87.11
74627;BME280;63132;52.268;5.192;2023-02-19T05:35:56;101892.91;;;7.61;86.77
74627;BME280;63132;52.268;5.192;2023-02-19T05:38:23;101880.03;;;7.53;87.03
74627;BME280;63132;52.268;5.192;2023-02-19T05:40:48;101896.78;;;7.54;87.08
74627;BME280;63132;52.268;5.192;2023-02-19T05:43:15;101890.88;;;7.66;86.47
74627;BME280;63132;52.268;5.192;2023-02-19T05:45:41;101889.75;;;7.53;86.86
74627;BME280;63132;52.268;5.192;2023-02-19T05:48:07;101886.66;;;7.62;86.70
74627;BME280;63132;52.268;5.192;2023-02-19T05:50:34;101890.94;;;7.65;85.79
74627;BME280;63132;52.268;5.192;2023-02-19T05:53:01;101895.84;;;7.55;86.42
74627;BME280;63132;52.268;5.192;2023-02-19T05:55:27;101894.75;;;7.59;86.50
74627;BME280;63132;52.268;5.192;2023-02-19T05:57:53;101898.03;;;7.64;85.89
74627;BME280;63132;52.268;5.192;2023-02-19T06:00:19;101910.56;;;7.61;86.17
74627;BME280;63132;52.268;5.192;2023-02-19T06:02:45;101909.69;;;7.60;86.38
74627;BME280;63132;52.268;5.192;2023-02-19T06:05:10;101910.03;;;7.54;86.62
74627;BME280;63132;52.268;5.192;2023-02-19T06:07:36;101923.56;;;7.48;86.79
74627;BME280;63132;52.268;5.192;2023-02-19T06:10:05;101920.63;;;7.54;86.88
74627;BME280;63132;52.268;5.192;2023-02-19T06:12:30;101930.44;;;7.52;87.00
74627;BME280;63132;52.268;5.192;2023-02-19T06:14:56;101937.72;;;7.46;86.90
74627;BME280;63132;52.268;5.192;2023-02-19T06:17:21;101934.94;;;7.50;86.66
74627;BME280;63132;52.268;5.192;2023-02-19T06:19:47;101940.94;;;7.53;86.49
74627;BME280;63132;52.268;5.192;2023-02-19T06:22:14;101947.16;;;7.52;86.70
74627;BME280;63132;52.268;5.192;2023-02-19T06:24:39;101950.38;;;7.59;86.56
74627;BME280;63132;52.268;5.192;2023-02-19T06:27:08;101951.59;;;7.52;86.43
74627;BME280;63132;52.268;5.192;2023-02-19T06:29:33;101954.97;;;7.55;86.54
74627;BME280;63132;52.268;5.192;2023-02-19T06:32:03;101946.94;;;7.57;86.29
74627;BME280;63132;52.268;5.192;2023-02-19T06:34:28;101958.47;;;7.56;85.80
74627;BME280;63132;52.268;5.192;2023-02-19T06:36:53;101945.25;;;7.56;85.85
74627;BME280;63132;52.268;5.192;2023-02-19T06:39:19;101958.69;;;7.51;86.14
74627;BME280;63132;52.268;5.192;2023-02-19T06:41:44;101956.81;;;7.53;86.20
74627;BME280;63132;52.268;5.192;2023-02-19T06:44:09;101961.84;;;7.60;85.88
74627;BME280;63132;52.268;5.192;2023-02-19T06:46:35;101965.47;;;7.57;85.69
74627;BME280;63132;52.268;5.192;2023-02-19T06:49:03;101970.44;;;7.45;86.24
74627;BME280;63132;52.268;5.192;2023-02-19T06:51:28;101967.63;;;7.49;85.93
74627;BME280;63132;52.268;5.192;2023-02-19T06:53:54;101977.31;;;7.50;86.00
74627;BME280;63132;52.268;5.192;2023-02-19T06:56:28;101975.56;;;7.49;85.71
74627;BME280;63132;52.268;5.192;2023-02-19T06:58:56;101987.03;;;7.49;85.42
74627;BME280;63132;52.268;5.192;2023-02-19T07:01:22;101985.78;;;7.56;85.71
74627;BME280;63132;52.268;5.192;2023-02-19T07:03:48;101990.31;;;7.54;85.27
74627;BME280;63132;52.268;5.192;2023-02-19T07:06:14;101997.47;;;7.52;85.49
74627;BME280;63132;52.268;5.192;2023-02-19T07:08:39;101996.75;;;7.49;85.47
74627;BME280;63132;52.268;5.192;2023-02-19T07:11:05;102009.09;;;7.50;85.34
74627;BME280;63132;52.268;5.192;2023-02-19T07:13:30;102009.63;;;7.56;84.96
74627;BME280;63132;52.268;5.192;2023-02-19T07:16:00;102016.50;;;7.61;85.15
74627;BME280;63132;52.268;5.192;2023-02-19T07:18:27;102024.53;;;7.59;84.72
74627;BME280;63132;52.268;5.192;2023-02-19T07:20:53;102032.13;;;7.48;85.13
74627;BME280;63132;52.268;5.192;2023-02-19T07:23:18;102032.91;;;7.50;85.05
74627;BME280;63132;52.268;5.192;2023-02-19T07:25:44;102035.28;;;7.56;85.23
74627;BME280;63132;52.268;5.192;2023-02-19T07:28:09;102033.53;;;7.55;85.22
74627;BME280;63132;52.268;5.192;2023-02-19T07:30:35;102032.47;;;7.59;85.80
74627;BME280;63132;52.268;5.192;2023-02-19T07:33:00;102043.00;;;7.41;85.54
74627;BME280;63132;52.268;5.192;2023-02-19T07:35:26;102050.03;;;7.42;85.99
74627;BME280;63132;52.268;5.192;2023-02-19T07:37:51;102049.00;;;7.45;85.36
74627;BME280;63132;52.268;5.192;2023-02-19T07:40:17;102049.31;;;7.39;85.31
74627;BME280;63132;52.268;5.192;2023-02-19T07:42:42;102051.16;;;7.37;85.83
74627;BME280;63132;52.268;5.192;2023-02-19T07:45:08;102056.31;;;7.59;85.30
74627;BME280;63132;52.268;5.192;2023-02-19T07:47:33;102049.28;;;7.58;84.88
74627;BME280;63132;52.268;5.192;2023-02-19T07:49:59;102058.16;;;7.57;84.77
74627;BME280;63132;52.268;5.192;2023-02-19T07:52:24;102062.53;;;7.58;85.88
74627;BME280;63132;52.268;5.192;2023-02-19T07:54:50;102073.34;;;7.53;85.98
74627;BME280;63132;52.268;5.192;2023-02-19T07:57:15;102073.91;;;7.60;85.92
74627;BME280;63132;52.268;5.192;2023-02-19T07:59:40;102066.47;;;7.49;86.25
74627;BME280;63132;52.268;5.192;2023-02-19T08:02:16;102076.06;;;7.52;86.39
74627;BME280;63132;52.268;5.192;2023-02-19T08:05:01;102081.28;;;7.53;86.48
74627;BME280;63132;52.268;5.192;2023-02-19T08:07:33;102079.06;;;7.44;86.08
74627;BME280;63132;52.268;5.192;2023-02-19T08:09:59;102089.88;;;7.58;86.22
74627;BME280;63132;52.268;5.192;2023-02-19T08:12:44;102095.53;;;7.51;86.54
74627;BME280;63132;52.268;5.192;2023-02-19T08:15:27;102095.25;;;7.57;86.37
74627;BME280;63132;52.268;5.192;2023-02-19T08:17:53;102100.53;;;7.57;85.89
74627;BME280;63132;52.268;5.192;2023-02-19T08:20:18;102105.25;;;7.69;86.00
74627;BME280;63132;52.268;5.192;2023-02-19T08:22:44;102112.78;;;7.60;86.01
74627;BME280;63132;52.268;5.192;2023-02-19T08:25:09;102108.56;;;7.55;85.71
74627;BME280;63132;52.268;5.192;2023-02-19T08:27:35;102114.50;;;7.61;85.70
74627;BME280;63132;52.268;5.192;2023-02-19T08:30:00;102122.81;;;7.72;85.09
74627;BME280;63132;52.268;5.192;2023-02-19T08:32:25;102127.47;;;7.67;85.34
74627;BME280;63132;52.268;5.192;2023-02-19T08:34:51;102133.13;;;7.78;85.19
74627;BME280;63132;52.268;5.192;2023-02-19T08:37:16;102140.38;;;7.75;85.26
74627;BME280;63132;52.268;5.192;2023-02-19T08:39:42;102131.41;;;7.77;85.25
74627;BME280;63132;52.268;5.192;2023-02-19T08:42:07;102142.22;;;7.73;84.75
74627;BME280;63132;52.268;5.192;2023-02-19T08:44:32;102143.56;;;7.62;85.36
74627;BME280;63132;52.268;5.192;2023-02-19T08:46:58;102137.47;;;7.79;84.88
74627;BME280;63132;52.268;5.192;2023-02-19T08:49:26;102125.91;;;7.82;84.97
74627;BME280;63132;52.268;5.192;2023-02-19T08:51:52;102124.31;;;7.78;84.75
74627;BME280;63132;52.268;5.192;2023-02-19T08:54:17;102134.00;;;7.79;85.02
74627;BME280;63132;52.268;5.192;2023-02-19T08:56:43;102141.94;;;7.79;84.71
74627;BME280;63132;52.268;5.192;2023-02-19T08:59:08;102142.34;;;7.89;85.00
74627;BME280;63132;52.268;5.192;2023-02-19T09:01:33;102135.47;;;8.04;84.74
74627;BME280;63132;52.268;5.192;2023-02-19T09:03:59;102141.34;;;8.11;83.81
74627;BME280;63132;52.268;5.192;2023-02-19T09:06:25;102138.63;;;8.12;84.47
74627;BME280;63132;52.268;5.192;2023-02-19T09:08:50;102143.84;;;8.14;83.87
74627;BME280;63132;52.268;5.192;2023-02-19T09:11:16;102151.75;;;8.33;83.55
74627;BME280;63132;52.268;5.192;2023-02-19T09:13:42;102156.88;;;8.19;83.99
74627;BME280;63132;52.268;5.192;2023-02-19T09:16:07;102162.56;;;8.11;84.50
74627;BME280;63132;52.268;5.192;2023-02-19T09:18:33;102160.41;;;7.80;85.11
74627;BME280;63132;52.268;5.192;2023-02-19T09:21:03;102168.25;;;7.63;86.04
74627;BME280;63132;52.268;5.192;2023-02-19T09:23:31;102171.44;;;7.31;86.00
74627;BME280;63132;52.268;5.192;2023-02-19T09:25:57;102189.50;;;7.21;86.07
74627;BME280;63132;52.268;5.192;2023-02-19T09:28:24;102200.25;;;6.95;85.89
74627;BME280;63132;52.268;5.192;2023-02-19T09:30:49;102213.41;;;6.76;86.84
74627;BME280;63132;52.268;5.192;2023-02-19T09:33:15;102218.41;;;6.61;86.99
74627;BME280;63132;52.268;5.192;2023-02-19T09:35:40;102223.69;;;6.61;86.96
74627;BME280;63132;52.268;5.192;2023-02-19T09:38:05;102228.59;;;6.71;87.15
74627;BME280;63132;52.268;5.192;2023-02-19T09:40:31;102229.53;;;6.70;86.13
74627;BME280;63132;52.268;5.192;2023-02-19T09:42:57;102245.72;;;6.62;86.13
74627;BME280;63132;52.268;5.192;2023-02-19T09:45:23;102245.38;;;6.47;86.21
74627;BME280;63132;52.268;5.192;2023-02-19T09:47:53;102249.53;;;6.55;86.34
74627;BME280;63132;52.268;5.192;2023-02-19T09:50:22;102255.41;;;6.39;85.82
74627;BME280;63132;52.268;5.192;2023-02-19T09:52:57;102248.44;;;6.36;85.77
74627;BME280;63132;52.268;5.192;2023-02-19T09:55:35;102251.22;;;6.33;86.85
74627;BME280;63132;52.268;5.192;2023-02-19T10:00:39;102270.03;;;6.48;87.11
74627;BME280;63132;52.268;5.192;2023-02-19T10:03:12;102284.28;;;6.44;86.16
74627;BME280;63132;52.268;5.192;2023-02-19T10:05:39;102294.38;;;6.34;86.74
74627;BME280;63132;52.268;5.192;2023-02-19T10:08:13;102284.09;;;6.26;87.49
74627;BME280;63132;52.268;5.192;2023-02-19T10:10:42;102294.19;;;6.38;87.25
74627;BME280;63132;52.268;5.192;2023-02-19T10:13:20;102305.28;;;6.24;86.85
74627;BME280;63132;52.268;5.192;2023-02-19T10:15:51;102313.63;;;6.37;87.14
74627;BME280;63132;52.268;5.192;2023-02-19T10:18:21;102318.03;;;6.37;86.83
74627;BME280;63132;52.268;5.192;2023-02-19T10:20:48;102322.75;;;6.28;86.81
74627;BME280;63132;52.268;5.192;2023-02-19T10:23:15;102329.06;;;6.24;86.72
74627;BME280;63132;52.268;5.192;2023-02-19T10:25:52;102325.84;;;6.16;86.71
74627;BME280;63132;52.268;5.192;2023-02-19T10:28:20;102327.28;;;6.25;86.88
74627;BME280;63132;52.268;5.192;2023-02-19T10:30:51;102329.94;;;6.25;87.42
74627;BME280;63132;52.268;5.192;2023-02-19T10:33:17;102335.97;;;6.53;87.08
74627;BME280;63132;52.268;5.192;2023-02-19T10:35:54;102341.44;;;6.72;86.19
74627;BME280;63132;52.268;5.192;2023-02-19T10:38:26;102349.75;;;6.61;85.74
74627;BME280;63132;52.268;5.192;2023-02-19T10:41:12;102355.91;;;6.61;86.30
74627;BME280;63132;52.268;5.192;2023-02-19T10:43:41;102349.66;;;6.40;85.84
74627;BME280;63132;52.268;5.192;2023-02-19T10:46:18;102348.63;;;6.44;86.52
74627;BME280;63132;52.268;5.192;2023-02-19T10:48:53;102350.34;;;6.45;86.26
74627;BME280;63132;52.268;5.192;2023-02-19T10:51:19;102345.75;;;6.50;86.11
74627;BME280;63132;52.268;5.192;2023-02-19T10:53:50;102338.03;;;6.68;85.01
74627;BME280;63132;52.268;5.192;2023-02-19T10:56:23;102321.47;;;6.85;84.82
74627;BME280;63132;52.268;5.192;2023-02-19T10:58:50;102317.72;;;6.69;84.32
74627;BME280;63132;52.268;5.192;2023-02-19T11:01:17;102328.31;;;6.69;84.93
74627;BME280;63132;52.268;5.192;2023-02-19T11:03:44;102338.88;;;6.69;85.70
74627;BME280;63132;52.268;5.192;2023-02-19T11:06:12;102344.63;;;6.80;86.03
74627;BME280;63132;52.268;5.192;2023-02-19T11:08:56;102343.09;;;6.50;85.42
74627;BME280;63132;52.268;5.192;2023-02-19T11:11:30;102358.09;;;6.50;85.95
74627;BME280;63132;52.268;5.192;2023-02-19T11:13:58;102363.41;;;6.24;85.21
74627;BME280;63132;52.268;5.192;2023-02-19T11:16:37;102361.16;;;6.39;85.40
74627;BME280;63132;52.268;5.192;2023-02-19T11:19:03;102367.00;;;6.23;85.64
74627;BME280;63132;52.268;5.192;2023-02-19T11:21:29;102371.81;;;6.12;85.64
74627;BME280;63132;52.268;5.192;2023-02-19T11:23:58;102368.66;;;6.00;85.47
74627;BME280;63132;52.268;5.192;2023-02-19T11:26:27;102369.84;;;6.17;86.20
74627;BME280;63132;52.268;5.192;2023-02-19T11:28:57;102374.13;;;6.21;85.20
74627;BME280;63132;52.268;5.192;2023-02-19T11:31:27;102370.84;;;6.14;85.02
74627;BME280;63132;52.268;5.192;2023-02-19T11:36:35;102387.19;;;6.50;83.99
74627;BME280;63132;52.268;5.192;2023-02-19T11:39:25;102379.72;;;6.37;84.66
74627;BME280;63132;52.268;5.192;2023-02-19T11:42:17;102389.69;;;6.29;84.94
74627;BME280;63132;52.268;5.192;2023-02-19T11:53:33;102367.69;;;6.03;84.87
74627;BME280;63132;52.268;5.192;2023-02-19T11:56:20;102375.03;;;6.20;85.43
74627;BME280;63132;52.268;5.192;2023-02-19T12:01:27;102375.28;;;6.62;83.20
74627;BME280;63132;52.268;5.192;2023-02-19T12:04:30;102371.38;;;6.48;82.42
74627;BME280;63132;52.268;5.192;2023-02-19T12:20:59;102384.94;;;6.63;81.90
74627;BME280;63132;52.268;5.192;2023-02-19T12:29:04;102386.25;;;6.27;81.68
74627;BME280;63132;52.268;5.192;2023-02-19T12:31:44;102392.88;;;6.63;80.78
74627;BME280;63132;52.268;5.192;2023-02-19T12:42:10;102392.59;;;6.71;79.98
74627;BME280;63132;52.268;5.192;2023-02-19T12:44:53;102398.72;;;6.95;79.32
74627;BME280;63132;52.268;5.192;2023-02-19T12:47:23;102406.03;;;6.89;78.68
74627;BME280;63132;52.268;5.192;2023-02-19T12:52:40;102422.53;;;6.47;80.05
74627;BME280;63132;52.268;5.192;2023-02-19T12:55:27;102422.88;;;6.86;77.72
74627;BME280;63132;52.268;5.192;2023-02-19T12:57:55;102420.78;;;6.72;78.47
74627;BME280;63132;52.268;5.192;2023-02-19T13:00:58;102422.78;;;6.65;80.82
74627;BME280;63132;52.268;5.192;2023-02-19T13:03:31;102429.56;;;6.48;79.93
74627;BME280;63132;52.268;5.192;2023-02-19T13:08:51;102449.88;;;6.72;79.87
74627;BME280;63132;52.268;5.192;2023-02-19T13:11:23;102444.81;;;6.66;78.18
74627;BME280;63132;52.268;5.192;2023-02-19T13:17:01;102452.34;;;7.01;75.50
74627;BME280;63132;52.268;5.192;2023-02-19T13:19:30;102466.16;;;6.85;76.25
74627;BME280;63132;52.268;5.192;2023-02-19T13:21:57;102458.31;;;7.06;74.17
74627;BME280;63132;52.268;5.192;2023-02-19T13:25:06;102450.03;;;6.91;74.11
74627;BME280;63132;52.268;5.192;2023-02-19T13:27:56;102455.56;;;6.85;74.10
74627;BME280;63132;52.268;5.192;2023-02-19T13:33:38;102482.06;;;7.07;73.00
74627;BME280;63132;52.268;5.192;2023-02-19T13:36:14;102465.25;;;7.08;71.76
74627;BME280;63132;52.268;5.192;2023-02-19T13:38:45;102476.25;;;6.97;72.88
74627;BME280;63132;52.268;5.192;2023-02-19T13:41:17;102484.66;;;6.85;70.81
74627;BME280;63132;52.268;5.192;2023-02-19T13:43:43;102483.19;;;6.78;72.00
74627;BME280;63132;52.268;5.192;2023-02-19T13:46:13;102480.22;;;6.85;70.93
74627;BME280;63132;52.268;5.192;2023-02-19T13:48:40;102478.47;;;7.10;71.31
74627;BME280;63132;52.268;5.192;2023-02-19T13:53:58;102490.56;;;6.92;72.70
74627;BME280;63132;52.268;5.192;2023-02-19T14:04:44;102503.56;;;6.74;74.02
74627;BME280;63132;52.268;5.192;2023-02-19T14:14:45;102494.22;;;6.89;73.72
74627;BME280;63132;52.268;5.192;2023-02-19T14:17:27;102486.97;;;6.94;72.71
74627;BME280;63132;52.268;5.192;2023-02-19T14:34:14;102445.91;;;7.53;70.05
74627;BME280;63132;52.268;5.192;2023-02-19T14:36:52;102457.13;;;8.03;68.44
74627;BME280;63132;52.268;5.192;2023-02-19T14:39:23;102437.94;;;7.53;70.50
74627;BME280;63132;52.268;5.192;2023-02-19T14:41:58;102438.97;;;7.50;68.98
74627;BME280;63132;52.268;5.192;2023-02-19T14:44:29;102434.38;;;7.76;69.60
74627;BME280;63132;52.268;5.192;2023-02-19T14:47:05;102436.44;;;7.90;69.33
74627;BME280;63132;52.268;5.192;2023-02-19T14:49:47;102433.50;;;7.97;69.13
74627;BME280;63132;52.268;5.192;2023-02-19T14:52:26;102428.84;;;7.81;70.93
74627;BME280;63132;52.268;5.192;2023-02-19T14:54:58;102430.75;;;8.00;69.89
74627;BME280;63132;52.268;5.192;2023-02-19T14:57:30;102436.06;;;8.00;68.82
74627;BME280;63132;52.268;5.192;2023-02-19T14:59:59;102441.84;;;7.87;70.69
74627;BME280;63132;52.268;5.192;2023-02-19T15:02:28;102441.19;;;7.82;69.42
74627;BME280;63132;52.268;5.192;2023-02-19T15:04:54;102434.03;;;7.84;70.89
74627;BME280;63132;52.268;5.192;2023-02-19T15:07:28;102430.28;;;7.90;70.65